sensor_id;sensor_type;location;lat;lon;timestamp;P1;durP1;ratioP1;P2;durP2;ratioP2
7253;SDS011;4060;49.186;9.226;2023-04-25T00:01:36;2.15;;;1.95;;
7253;SDS011;4060;49.186;9.226;2023-04-25T00:04:11;2.30;;;2.10;;
7253;SDS011;4060;49.186;9.226;2023-04-25T00:06:41;2.78;;;2.05;;
7253;SDS011;4060;49.186;9.226;2023-04-25T00:09:11;2.42;;;2.22;;
7253;SDS011;4060;49.186;9.226;2023-04-25T00:11:43;2.28;;;2.08;;
7253;SDS011;4060;49.186;9.226;2023-04-25T00:14:12;2.42;;;2.22;;
7253;SDS011;4060;49.186;9.226;2023-04-25T00:16:43;2.55;;;2.00;;
7253;SDS011;4060;49.186;9.226;2023-04-25T00:19:12;2.67;;;2.47;;
7253;SDS011;4060;49.186;9.226;2023-04-25T00:21:42;2.03;;;1.90;;
7253;SDS011;4060;49.186;9.226;2023-04-25T00:24:12;2.08;;;1.98;;
7253;SDS011;4060;49.186;9.226;2023-04-25T00:26:44;1.92;;;1.80;;
7253;SDS011;4060;49.186;9.226;2023-04-25T00:29:13;2.25;;;2.05;;
7253;SDS011;4060;49.186;9.226;2023-04-25T00:31:43;2.35;;;2.15;;
7253;SDS011;4060;49.186;9.226;2023-04-25T00:34:12;2.40;;;2.20;;
7253;SDS011;4060;49.186;9.226;2023-04-25T00:36:42;1.88;;;1.77;;
7253;SDS011;4060;49.186;9.226;2023-04-25T00:39:12;2.03;;;1.85;;
7253;SDS011;4060;49.186;9.226;2023-04-25T00:41:44;2.63;;;1.98;;
7253;SDS011;4060;49.186;9.226;2023-04-25T00:44:14;2.00;;;1.90;;
7253;SDS011;4060;49.186;9.226;2023-04-25T00:46:44;2.10;;;2.00;;
7253;SDS011;4060;49.186;9.226;2023-04-25T00:49:16;2.05;;;1.95;;
7253;SDS011;4060;49.186;9.226;2023-04-25T00:51:45;1.70;;;1.60;;
7253;SDS011;4060;49.186;9.226;2023-04-25T00:54:15;2.20;;;2.00;;
7253;SDS011;4060;49.186;9.226;2023-04-25T00:56:47;2.15;;;1.88;;
7253;SDS011;4060;49.186;9.226;2023-04-25T00:59:16;2.35;;;2.05;;
7253;SDS011;4060;49.186;9.226;2023-04-25T01:01:48;1.90;;;1.80;;
7253;SDS011;4060;49.186;9.226;2023-04-25T01:04:17;2.63;;;1.83;;
7253;SDS011;4060;49.186;9.226;2023-04-25T01:06:47;2.15;;;1.95;;
7253;SDS011;4060;49.186;9.226;2023-04-25T01:09:17;1.92;;;1.80;;
7253;SDS011;4060;49.186;9.226;2023-04-25T01:11:50;1.92;;;1.83;;
7253;SDS011;4060;49.186;9.226;2023-04-25T01:14:19;2.55;;;1.90;;
7253;SDS011;4060;49.186;9.226;2023-04-25T01:16:48;2.30;;;2.05;;
7253;SDS011;4060;49.186;9.226;2023-04-25T01:19:18;2.10;;;1.90;;
7253;SDS011;4060;49.186;9.226;2023-04-25T01:21:51;2.30;;;2.10;;
7253;SDS011;4060;49.186;9.226;2023-04-25T01:24:20;1.92;;;1.83;;
7253;SDS011;4060;49.186;9.226;2023-04-25T01:26:50;2.10;;;1.90;;
7253;SDS011;4060;49.186;9.226;2023-04-25T01:29:22;2.53;;;2.03;;
7253;SDS011;4060;49.186;9.226;2023-04-25T01:31:52;1.77;;;1.67;;
7253;SDS011;4060;49.186;9.226;2023-04-25T01:34:21;2.13;;;1.90;;
7253;SDS011;4060;49.186;9.226;2023-04-25T01:36:53;2.20;;;2.05;;
7253;SDS011;4060;49.186;9.226;2023-04-25T01:39:22;2.28;;;2.17;;
7253;SDS011;4060;49.186;9.226;2023-04-25T01:41:52;2.35;;;2.15;;
7253;SDS011;4060;49.186;9.226;2023-04-25T01:44:22;2.53;;;2.33;;
7253;SDS011;4060;49.186;9.226;2023-04-25T01:46:51;2.08;;;1.83;;
7253;SDS011;4060;49.186;9.226;2023-04-25T01:49:21;1.98;;;1.88;;
7253;SDS011;4060;49.186;9.226;2023-04-25T01:51:54;2.13;;;2.03;;
7253;SDS011;4060;49.186;9.226;2023-04-25T01:54:24;2.78;;;2.17;;
7253;SDS011;4060;49.186;9.226;2023-04-25T01:56:53;2.50;;;2.30;;
7253;SDS011;4060;49.186;9.226;2023-04-25T01:59:26;2.63;;;2.42;;
7253;SDS011;4060;49.186;9.226;2023-04-25T02:01:56;2.30;;;2.10;;
7253;SDS011;4060;49.186;9.226;2023-04-25T02:04:25;2.22;;;2.05;;
7253;SDS011;4060;49.186;9.226;2023-04-25T02:06:57;2.53;;;1.85;;
7253;SDS011;4060;49.186;9.226;2023-04-25T02:09:26;2.28;;;2.15;;
7253;SDS011;4060;49.186;9.226;2023-04-25T02:11:56;2.58;;;2.38;;
7253;SDS011;4060;49.186;9.226;2023-04-25T02:14:26;2.42;;;2.20;;
7253;SDS011;4060;49.186;9.226;2023-04-25T02:16:56;2.70;;;2.50;;
7253;SDS011;4060;49.186;9.226;2023-04-25T02:19:25;2.38;;;2.17;;
7253;SDS011;4060;49.186;9.226;2023-04-25T02:21:56;2.35;;;2.25;;
7253;SDS011;4060;49.186;9.226;2023-04-25T02:24:26;2.67;;;2.47;;
7253;SDS011;4060;49.186;9.226;2023-04-25T02:26:56;2.50;;;2.30;;
7253;SDS011;4060;49.186;9.226;2023-04-25T02:29:25;2.42;;;2.25;;
7253;SDS011;4060;49.186;9.226;2023-04-25T02:31:54;2.60;;;2.40;;
7253;SDS011;4060;49.186;9.226;2023-04-25T02:34:24;2.63;;;2.42;;
7253;SDS011;4060;49.186;9.226;2023-04-25T02:36:56;3.97;;;2.60;;
7253;SDS011;4060;49.186;9.226;2023-04-25T02:39:27;2.67;;;2.47;;
7253;SDS011;4060;49.186;9.226;2023-04-25T02:41:56;2.58;;;2.38;;
7253;SDS011;4060;49.186;9.226;2023-04-25T02:44:27;2.50;;;2.30;;
7253;SDS011;4060;49.186;9.226;2023-04-25T02:46:56;2.13;;;2.03;;
7253;SDS011;4060;49.186;9.226;2023-04-25T02:49:26;3.00;;;2.60;;
7253;SDS011;4060;49.186;9.226;2023-04-25T02:51:58;2.53;;;2.30;;
7253;SDS011;4060;49.186;9.226;2023-04-25T02:54:29;2.75;;;1.90;;
7253;SDS011;4060;49.186;9.226;2023-04-25T02:56:59;2.53;;;2.33;;
7253;SDS011;4060;49.186;9.226;2023-04-25T02:59:31;2.20;;;2.10;;
7253;SDS011;4060;49.186;9.226;2023-04-25T03:02:00;2.35;;;2.15;;
7253;SDS011;4060;49.186;9.226;2023-04-25T03:04:30;2.30;;;2.10;;
7253;SDS011;4060;49.186;9.226;2023-04-25T03:07:02;2.20;;;2.03;;
7253;SDS011;4060;49.186;9.226;2023-04-25T03:09:31;2.80;;;2.60;;
7253;SDS011;4060;49.186;9.226;2023-04-25T03:12:01;2.22;;;2.10;;
7253;SDS011;4060;49.186;9.226;2023-04-25T03:14:30;2.03;;;1.83;;
7253;SDS011;4060;49.186;9.226;2023-04-25T03:17:00;2.30;;;2.10;;
7253;SDS011;4060;49.186;9.226;2023-04-25T03:19:29;2.40;;;2.25;;
7253;SDS011;4060;49.186;9.226;2023-04-25T03:21:59;2.42;;;2.22;;
7253;SDS011;4060;49.186;9.226;2023-04-25T03:24:31;2.00;;;1.90;;
7253;SDS011;4060;49.186;9.226;2023-04-25T03:27:01;3.10;;;2.33;;
7253;SDS011;4060;49.186;9.226;2023-04-25T03:29:30;2.30;;;2.20;;
7253;SDS011;4060;49.186;9.226;2023-04-25T03:32:00;2.40;;;2.20;;
7253;SDS011;4060;49.186;9.226;2023-04-25T03:34:29;3.78;;;2.08;;
7253;SDS011;4060;49.186;9.226;2023-04-25T03:36:59;2.53;;;2.33;;
7253;SDS011;4060;49.186;9.226;2023-04-25T03:39:30;2.83;;;2.50;;
7253;SDS011;4060;49.186;9.226;2023-04-25T03:42:00;2.45;;;2.13;;
7253;SDS011;4060;49.186;9.226;2023-04-25T03:44:30;2.47;;;2.30;;
7253;SDS011;4060;49.186;9.226;2023-04-25T03:46:59;3.13;;;2.53;;
7253;SDS011;4060;49.186;9.226;2023-04-25T03:49:29;2.33;;;2.15;;
7253;SDS011;4060;49.186;9.226;2023-04-25T03:51:59;2.33;;;2.15;;
7253;SDS011;4060;49.186;9.226;2023-04-25T03:54:30;2.50;;;2.30;;
7253;SDS011;4060;49.186;9.226;2023-04-25T03:57:00;2.63;;;2.42;;
7253;SDS011;4060;49.186;9.226;2023-04-25T03:59:29;2.58;;;2.38;;
7253;SDS011;4060;49.186;9.226;2023-04-25T04:01:59;2.88;;;2.60;;
7253;SDS011;4060;49.186;9.226;2023-04-25T04:04:28;2.70;;;2.47;;
7253;SDS011;4060;49.186;9.226;2023-04-25T04:06:58;3.10;;;2.80;;
7253;SDS011;4060;49.186;9.226;2023-04-25T04:09:27;2.53;;;2.33;;
7253;SDS011;4060;49.186;9.226;2023-04-25T04:11:59;3.40;;;2.42;;
7253;SDS011;4060;49.186;9.226;2023-04-25T04:14:29;3.03;;;2.75;;
7253;SDS011;4060;49.186;9.226;2023-04-25T04:16:58;2.90;;;2.70;;
7253;SDS011;4060;49.186;9.226;2023-04-25T04:19:28;2.65;;;2.45;;
7253;SDS011;4060;49.186;9.226;2023-04-25T04:21:58;3.03;;;2.80;;
7253;SDS011;4060;49.186;9.226;2023-04-25T04:24:27;2.80;;;2.60;;
7253;SDS011;4060;49.186;9.226;2023-04-25T04:26:59;3.17;;;2.92;;
7253;SDS011;4060;49.186;9.226;2023-04-25T04:29:29;2.88;;;2.67;;
7253;SDS011;4060;49.186;9.226;2023-04-25T04:31:58;3.30;;;2.97;;
7253;SDS011;4060;49.186;9.226;2023-04-25T04:34:29;3.00;;;2.80;;
7253;SDS011;4060;49.186;9.226;2023-04-25T04:37:00;3.28;;;3.08;;
7253;SDS011;4060;49.186;9.226;2023-04-25T04:39:31;3.08;;;2.78;;
7253;SDS011;4060;49.186;9.226;2023-04-25T04:42:07;3.00;;;2.80;;
7253;SDS011;4060;49.186;9.226;2023-04-25T04:44:37;3.90;;;3.50;;
7253;SDS011;4060;49.186;9.226;2023-04-25T04:47:06;3.10;;;2.88;;
7253;SDS011;4060;49.186;9.226;2023-04-25T04:49:37;3.35;;;3.05;;
7253;SDS011;4060;49.186;9.226;2023-04-25T04:52:07;3.28;;;3.08;;
7253;SDS011;4060;49.186;9.226;2023-04-25T04:54:38;2.97;;;2.78;;
7253;SDS011;4060;49.186;9.226;2023-04-25T04:57:08;3.30;;;3.00;;
7253;SDS011;4060;49.186;9.226;2023-04-25T04:59:37;3.50;;;3.05;;
7253;SDS011;4060;49.186;9.226;2023-04-25T05:02:07;3.38;;;3.00;;
7253;SDS011;4060;49.186;9.226;2023-04-25T05:04:36;3.50;;;3.20;;
7253;SDS011;4060;49.186;9.226;2023-04-25T05:07:05;2.90;;;2.70;;
7253;SDS011;4060;49.186;9.226;2023-04-25T05:09:40;3.60;;;3.30;;
7253;SDS011;4060;49.186;9.226;2023-04-25T05:12:10;3.42;;;3.10;;
7253;SDS011;4060;49.186;9.226;2023-04-25T05:14:40;3.58;;;3.33;;
7253;SDS011;4060;49.186;9.226;2023-04-25T05:17:09;3.58;;;3.28;;
7253;SDS011;4060;49.186;9.226;2023-04-25T05:19:39;4.15;;;3.33;;
7253;SDS011;4060;49.186;9.226;2023-04-25T05:22:09;3.45;;;3.15;;
7253;SDS011;4060;49.186;9.226;2023-04-25T05:24:40;3.88;;;3.47;;
7253;SDS011;4060;49.186;9.226;2023-04-25T05:27:09;3.78;;;3.47;;
7253;SDS011;4060;49.186;9.226;2023-04-25T05:29:38;3.58;;;3.25;;
7253;SDS011;4060;49.186;9.226;2023-04-25T05:32:08;3.90;;;3.47;;
7253;SDS011;4060;49.186;9.226;2023-04-25T05:34:37;3.45;;;3.13;;
7253;SDS011;4060;49.186;9.226;2023-04-25T05:37:07;3.22;;;3.03;;
7253;SDS011;4060;49.186;9.226;2023-04-25T05:39:37;3.92;;;3.47;;
7253;SDS011;4060;49.186;9.226;2023-04-25T05:42:08;3.60;;;3.30;;
7253;SDS011;4060;49.186;9.226;2023-04-25T05:44:37;3.50;;;3.20;;
7253;SDS011;4060;49.186;9.226;2023-04-25T05:47:07;3.30;;;3.10;;
7253;SDS011;4060;49.186;9.226;2023-04-25T05:49:37;3.15;;;2.95;;
7253;SDS011;4060;49.186;9.226;2023-04-25T05:52:06;3.60;;;3.30;;
7253;SDS011;4060;49.186;9.226;2023-04-25T05:54:38;3.22;;;3.03;;
7253;SDS011;4060;49.186;9.226;2023-04-25T05:57:14;3.60;;;3.30;;
7253;SDS011;4060;49.186;9.226;2023-04-25T05:59:49;2.88;;;2.63;;
7253;SDS011;4060;49.186;9.226;2023-04-25T06:02:19;3.42;;;3.17;;
7253;SDS011;4060;49.186;9.226;2023-04-25T06:04:49;3.13;;;2.90;;
7253;SDS011;4060;49.186;9.226;2023-04-25T06:07:19;2.92;;;2.67;;
7253;SDS011;4060;49.186;9.226;2023-04-25T06:09:50;3.30;;;3.00;;
7253;SDS011;4060;49.186;9.226;2023-04-25T06:12:22;3.47;;;3.17;;
7253;SDS011;4060;49.186;9.226;2023-04-25T06:14:51;3.70;;;3.40;;
7253;SDS011;4060;49.186;9.226;2023-04-25T06:17:21;3.67;;;3.38;;
7253;SDS011;4060;49.186;9.226;2023-04-25T06:19:51;3.55;;;3.25;;
7253;SDS011;4060;49.186;9.226;2023-04-25T06:22:22;4.07;;;3.00;;
7253;SDS011;4060;49.186;9.226;2023-04-25T06:24:51;3.45;;;3.15;;
7253;SDS011;4060;49.186;9.226;2023-04-25T06:27:25;3.85;;;3.55;;
7253;SDS011;4060;49.186;9.226;2023-04-25T06:29:55;3.25;;;3.05;;
7253;SDS011;4060;49.186;9.226;2023-04-25T06:32:25;3.80;;;3.35;;
7253;SDS011;4060;49.186;9.226;2023-04-25T06:34:56;3.60;;;3.30;;
7253;SDS011;4060;49.186;9.226;2023-04-25T06:37:25;3.38;;;3.08;;
7253;SDS011;4060;49.186;9.226;2023-04-25T06:39:55;3.60;;;3.30;;
7253;SDS011;4060;49.186;9.226;2023-04-25T06:42:28;3.42;;;3.13;;
7253;SDS011;4060;49.186;9.226;2023-04-25T06:44:58;3.38;;;3.08;;
7253;SDS011;4060;49.186;9.226;2023-04-25T06:47:28;3.88;;;3.58;;
7253;SDS011;4060;49.186;9.226;2023-04-25T06:49:57;3.70;;;3.40;;
7253;SDS011;4060;49.186;9.226;2023-04-25T06:52:27;4.07;;;3.75;;
7253;SDS011;4060;49.186;9.226;2023-04-25T06:54:56;3.75;;;3.45;;
7253;SDS011;4060;49.186;9.226;2023-04-25T06:57:27;3.60;;;3.30;;
7253;SDS011;4060;49.186;9.226;2023-04-25T06:59:57;3.85;;;3.55;;
7253;SDS011;4060;49.186;9.226;2023-04-25T07:02:32;4.15;;;3.85;;
7253;SDS011;4060;49.186;9.226;2023-04-25T07:05:02;4.55;;;4.15;;
7253;SDS011;4060;49.186;9.226;2023-04-25T07:07:32;4.03;;;3.55;;
7253;SDS011;4060;49.186;9.226;2023-04-25T07:10:02;3.70;;;3.40;;
7253;SDS011;4060;49.186;9.226;2023-04-25T07:12:34;4.05;;;3.65;;
7253;SDS011;4060;49.186;9.226;2023-04-25T07:15:04;3.70;;;3.40;;
7253;SDS011;4060;49.186;9.226;2023-04-25T07:17:36;4.28;;;3.97;;
7253;SDS011;4060;49.186;9.226;2023-04-25T07:20:06;4.00;;;3.70;;
7253;SDS011;4060;49.186;9.226;2023-04-25T07:22:36;4.20;;;3.45;;
7253;SDS011;4060;49.186;9.226;2023-04-25T07:25:06;4.22;;;3.83;;
7253;SDS011;4060;49.186;9.226;2023-04-25T07:27:38;4.47;;;3.80;;
7253;SDS011;4060;49.186;9.226;2023-04-25T07:30:08;3.88;;;3.47;;
7253;SDS011;4060;49.186;9.226;2023-04-25T07:32:38;4.35;;;4.03;;
7253;SDS011;4060;49.186;9.226;2023-04-25T07:35:09;3.88;;;3.50;;
7253;SDS011;4060;49.186;9.226;2023-04-25T07:37:39;4.15;;;3.75;;
7253;SDS011;4060;49.186;9.226;2023-04-25T07:40:08;4.78;;;4.25;;
7253;SDS011;4060;49.186;9.226;2023-04-25T07:42:40;3.80;;;3.50;;
7253;SDS011;4060;49.186;9.226;2023-04-25T07:45:09;4.07;;;3.78;;
7253;SDS011;4060;49.186;9.226;2023-04-25T07:47:39;4.80;;;3.92;;
7253;SDS011;4060;49.186;9.226;2023-04-25T07:50:09;3.63;;;3.33;;
7253;SDS011;4060;49.186;9.226;2023-04-25T07:52:39;3.90;;;3.60;;
7253;SDS011;4060;49.186;9.226;2023-04-25T07:55:09;4.32;;;3.92;;
7253;SDS011;4060;49.186;9.226;2023-04-25T07:57:40;4.07;;;3.67;;
7253;SDS011;4060;49.186;9.226;2023-04-25T08:00:10;4.00;;;3.70;;
7253;SDS011;4060;49.186;9.226;2023-04-25T08:02:41;4.13;;;3.83;;
7253;SDS011;4060;49.186;9.226;2023-04-25T08:05:10;4.20;;;3.90;;
7253;SDS011;4060;49.186;9.226;2023-04-25T08:07:41;4.25;;;3.90;;
7253;SDS011;4060;49.186;9.226;2023-04-25T08:10:11;4.10;;;3.70;;
7253;SDS011;4060;49.186;9.226;2023-04-25T08:12:43;4.22;;;3.83;;
7253;SDS011;4060;49.186;9.226;2023-04-25T08:15:13;4.25;;;3.92;;
7253;SDS011;4060;49.186;9.226;2023-04-25T08:17:43;4.85;;;4.13;;
7253;SDS011;4060;49.186;9.226;2023-04-25T08:20:12;4.22;;;3.88;;
7253;SDS011;4060;49.186;9.226;2023-04-25T08:22:42;4.80;;;4.40;;
7253;SDS011;4060;49.186;9.226;2023-04-25T08:25:12;4.70;;;4.28;;
7253;SDS011;4060;49.186;9.226;2023-04-25T08:27:43;5.18;;;4.78;;
7253;SDS011;4060;49.186;9.226;2023-04-25T08:30:13;5.60;;;5.10;;
7253;SDS011;4060;49.186;9.226;2023-04-25T08:32:43;5.88;;;5.38;;
7253;SDS011;4060;49.186;9.226;2023-04-25T08:35:12;5.57;;;5.07;;
7253;SDS011;4060;49.186;9.226;2023-04-25T08:37:43;5.55;;;5.05;;
7253;SDS011;4060;49.186;9.226;2023-04-25T08:40:14;5.70;;;5.20;;
7253;SDS011;4060;49.186;9.226;2023-04-25T08:42:46;5.93;;;5.40;;
7253;SDS011;4060;49.186;9.226;2023-04-25T08:45:17;5.35;;;4.95;;
7253;SDS011;4060;49.186;9.226;2023-04-25T08:47:46;6.15;;;5.28;;
7253;SDS011;4060;49.186;9.226;2023-04-25T08:50:20;5.30;;;4.90;;
7253;SDS011;4060;49.186;9.226;2023-04-25T08:52:53;5.00;;;4.60;;
7253;SDS011;4060;49.186;9.226;2023-04-25T08:55:27;5.25;;;4.85;;
7253;SDS011;4060;49.186;9.226;2023-04-25T08:57:59;4.57;;;4.15;;
7253;SDS011;4060;49.186;9.226;2023-04-25T09:00:29;5.57;;;5.07;;
7253;SDS011;4060;49.186;9.226;2023-04-25T09:02:59;5.20;;;4.78;;
7253;SDS011;4060;49.186;9.226;2023-04-25T09:05:29;4.63;;;4.22;;
7253;SDS011;4060;49.186;9.226;2023-04-25T09:08:01;5.07;;;4.68;;
7253;SDS011;4060;49.186;9.226;2023-04-25T09:10:32;5.53;;;4.95;;
7253;SDS011;4060;49.186;9.226;2023-04-25T09:13:05;5.20;;;4.70;;
7253;SDS011;4060;49.186;9.226;2023-04-25T09:15:47;5.60;;;5.10;;
7253;SDS011;4060;49.186;9.226;2023-04-25T09:18:23;5.10;;;4.57;;
7253;SDS011;4060;49.186;9.226;2023-04-25T09:20:54;5.03;;;4.63;;
7253;SDS011;4060;49.186;9.226;2023-04-25T09:23:24;5.25;;;4.75;;
7253;SDS011;4060;49.186;9.226;2023-04-25T09:25:54;4.63;;;4.22;;
7253;SDS011;4060;49.186;9.226;2023-04-25T09:28:27;5.35;;;4.85;;
7253;SDS011;4060;49.186;9.226;2023-04-25T09:30:57;5.28;;;4.75;;
7253;SDS011;4060;49.186;9.226;2023-04-25T09:33:27;4.68;;;4.28;;
7253;SDS011;4060;49.186;9.226;2023-04-25T09:36:01;5.20;;;4.70;;
7253;SDS011;4060;49.186;9.226;2023-04-25T09:38:32;5.03;;;4.53;;
7253;SDS011;4060;49.186;9.226;2023-04-25T09:41:09;5.85;;;4.68;;
7253;SDS011;4060;49.186;9.226;2023-04-25T09:43:41;4.82;;;4.45;;
7253;SDS011;4060;49.186;9.226;2023-04-25T09:46:14;5.32;;;4.82;;
7253;SDS011;4060;49.186;9.226;2023-04-25T09:48:48;5.35;;;4.45;;
7253;SDS011;4060;49.186;9.226;2023-04-25T09:51:19;4.93;;;4.47;;
7253;SDS011;4060;49.186;9.226;2023-04-25T09:53:56;6.25;;;5.57;;
7253;SDS011;4060;49.186;9.226;2023-04-25T09:56:26;5.40;;;4.90;;
7253;SDS011;4060;49.186;9.226;2023-04-25T09:59:05;5.38;;;4.88;;
7253;SDS011;4060;49.186;9.226;2023-04-25T10:01:35;5.03;;;4.53;;
7253;SDS011;4060;49.186;9.226;2023-04-25T10:04:07;5.90;;;5.40;;
7253;SDS011;4060;49.186;9.226;2023-04-25T10:06:46;6.43;;;5.30;;
7253;SDS011;4060;49.186;9.226;2023-04-25T10:09:19;5.82;;;5.22;;
7253;SDS011;4060;49.186;9.226;2023-04-25T10:11:51;5.95;;;5.45;;
7253;SDS011;4060;49.186;9.226;2023-04-25T10:14:24;5.55;;;5.05;;
7253;SDS011;4060;49.186;9.226;2023-04-25T10:16:55;5.82;;;5.28;;
7253;SDS011;4060;49.186;9.226;2023-04-25T10:19:26;5.78;;;5.25;;
7253;SDS011;4060;49.186;9.226;2023-04-25T10:22:07;6.22;;;5.57;;
7253;SDS011;4060;49.186;9.226;2023-04-25T10:24:41;5.82;;;4.88;;
7253;SDS011;4060;49.186;9.226;2023-04-25T10:27:12;6.45;;;5.25;;
7253;SDS011;4060;49.186;9.226;2023-04-25T10:29:44;5.93;;;5.32;;
7253;SDS011;4060;49.186;9.226;2023-04-25T10:32:30;5.50;;;4.70;;
7253;SDS011;4060;49.186;9.226;2023-04-25T10:35:11;5.60;;;4.60;;
7253;SDS011;4060;49.186;9.226;2023-04-25T10:38:00;5.03;;;4.53;;
7253;SDS011;4060;49.186;9.226;2023-04-25T10:40:33;4.88;;;4.28;;
7253;SDS011;4060;49.186;9.226;2023-04-25T10:46:16;5.88;;;4.90;;
7253;SDS011;4060;49.186;9.226;2023-04-25T10:48:49;4.63;;;4.22;;
7253;SDS011;4060;49.186;9.226;2023-04-25T10:51:20;5.38;;;4.88;;
7253;SDS011;4060;49.186;9.226;2023-04-25T10:53:57;5.00;;;4.50;;
7253;SDS011;4060;49.186;9.226;2023-04-25T10:56:29;4.85;;;4.35;;
7253;SDS011;4060;49.186;9.226;2023-04-25T10:59:04;6.15;;;5.50;;
7253;SDS011;4060;49.186;9.226;2023-04-25T11:01:38;7.97;;;5.35;;
7253;SDS011;4060;49.186;9.226;2023-04-25T11:04:20;5.57;;;4.75;;
7253;SDS011;4060;49.186;9.226;2023-04-25T11:07:05;5.05;;;4.65;;
7253;SDS011;4060;49.186;9.226;2023-04-25T11:09:42;5.32;;;4.82;;
7253;SDS011;4060;49.186;9.226;2023-04-25T11:12:14;4.68;;;4.18;;
7253;SDS011;4060;49.186;9.226;2023-04-25T11:14:44;5.65;;;5.03;;
7253;SDS011;4060;49.186;9.226;2023-04-25T11:17:15;5.40;;;4.90;;
7253;SDS011;4060;49.186;9.226;2023-04-25T11:19:47;5.50;;;4.97;;
7253;SDS011;4060;49.186;9.226;2023-04-25T11:22:24;6.38;;;5.18;;
7253;SDS011;4060;49.186;9.226;2023-04-25T11:24:56;6.53;;;5.30;;
7253;SDS011;4060;49.186;9.226;2023-04-25T11:27:26;5.78;;;4.95;;
7253;SDS011;4060;49.186;9.226;2023-04-25T11:29:56;5.60;;;5.10;;
7253;SDS011;4060;49.186;9.226;2023-04-25T11:32:27;5.93;;;5.32;;
7253;SDS011;4060;49.186;9.226;2023-04-25T11:34:57;5.90;;;5.40;;
7253;SDS011;4060;49.186;9.226;2023-04-25T11:37:27;5.13;;;4.72;;
7253;SDS011;4060;49.186;9.226;2023-04-25T11:39:57;5.68;;;5.03;;
7253;SDS011;4060;49.186;9.226;2023-04-25T11:42:27;5.40;;;4.90;;
7253;SDS011;4060;49.186;9.226;2023-04-25T11:44:57;5.28;;;4.80;;
7253;SDS011;4060;49.186;9.226;2023-04-25T11:47:30;5.65;;;5.10;;
7253;SDS011;4060;49.186;9.226;2023-04-25T11:50:00;5.75;;;4.93;;
7253;SDS011;4060;49.186;9.226;2023-04-25T11:52:38;5.07;;;4.57;;
7253;SDS011;4060;49.186;9.226;2023-04-25T11:55:09;4.97;;;4.47;;
7253;SDS011;4060;49.186;9.226;2023-04-25T11:57:41;4.88;;;4.47;;
7253;SDS011;4060;49.186;9.226;2023-04-25T12:00:12;7.22;;;5.20;;
7253;SDS011;4060;49.186;9.226;2023-04-25T12:02:45;5.18;;;4.78;;
7253;SDS011;4060;49.186;9.226;2023-04-25T12:05:15;5.50;;;5.00;;
7253;SDS011;4060;49.186;9.226;2023-04-25T12:07:46;5.00;;;4.55;;
7253;SDS011;4060;49.186;9.226;2023-04-25T12:10:16;5.63;;;5.10;;
7253;SDS011;4060;49.186;9.226;2023-04-25T12:12:47;4.72;;;4.22;;
7253;SDS011;4060;49.186;9.226;2023-04-25T12:15:18;5.03;;;4.53;;
7253;SDS011;4060;49.186;9.226;2023-04-25T12:17:55;5.30;;;4.22;;
7253;SDS011;4060;49.186;9.226;2023-04-25T12:20:26;6.18;;;4.63;;
7253;SDS011;4060;49.186;9.226;2023-04-25T12:22:56;5.50;;;4.35;;
7253;SDS011;4060;49.186;9.226;2023-04-25T12:25:36;4.65;;;4.22;;
7253;SDS011;4060;49.186;9.226;2023-04-25T12:28:11;4.72;;;4.25;;
7253;SDS011;4060;49.186;9.226;2023-04-25T12:30:53;5.35;;;4.20;;
7253;SDS011;4060;49.186;9.226;2023-04-25T12:33:32;4.82;;;4.22;;
7253;SDS011;4060;49.186;9.226;2023-04-25T12:36:02;4.85;;;3.97;;
7253;SDS011;4060;49.186;9.226;2023-04-25T12:38:37;5.85;;;4.38;;
7253;SDS011;4060;49.186;9.226;2023-04-25T12:41:08;4.40;;;3.75;;
7253;SDS011;4060;49.186;9.226;2023-04-25T12:43:38;4.95;;;4.22;;
7253;SDS011;4060;49.186;9.226;2023-04-25T12:46:08;4.57;;;4.13;;
7253;SDS011;4060;49.186;9.226;2023-04-25T12:48:40;5.55;;;4.10;;
7253;SDS011;4060;49.186;9.226;2023-04-25T12:51:14;4.55;;;3.78;;
7253;SDS011;4060;49.186;9.226;2023-04-25T12:53:44;4.97;;;3.85;;
7253;SDS011;4060;49.186;9.226;2023-04-25T12:56:16;7.13;;;4.68;;
7253;SDS011;4060;49.186;9.226;2023-04-25T12:58:45;6.25;;;4.00;;
7253;SDS011;4060;49.186;9.226;2023-04-25T13:01:16;4.10;;;3.65;;
7253;SDS011;4060;49.186;9.226;2023-04-25T13:03:50;4.82;;;4.32;;
7253;SDS011;4060;49.186;9.226;2023-04-25T13:06:20;5.50;;;4.25;;
7253;SDS011;4060;49.186;9.226;2023-04-25T13:08:51;5.15;;;4.18;;
7253;SDS011;4060;49.186;9.226;2023-04-25T13:11:26;5.47;;;4.35;;
7253;SDS011;4060;49.186;9.226;2023-04-25T13:13:56;4.45;;;4.05;;
7253;SDS011;4060;49.186;9.226;2023-04-25T13:16:26;5.15;;;3.97;;
7253;SDS011;4060;49.186;9.226;2023-04-25T13:18:58;4.40;;;4.00;;
7253;SDS011;4060;49.186;9.226;2023-04-25T13:21:29;6.75;;;4.43;;
7253;SDS011;4060;49.186;9.226;2023-04-25T13:24:00;6.15;;;4.35;;
7253;SDS011;4060;49.186;9.226;2023-04-25T13:26:30;5.00;;;4.40;;
7253;SDS011;4060;49.186;9.226;2023-04-25T13:29:02;4.50;;;3.75;;
7253;SDS011;4060;49.186;9.226;2023-04-25T13:31:32;5.68;;;3.88;;
7253;SDS011;4060;49.186;9.226;2023-04-25T13:34:07;4.80;;;3.75;;
7253;SDS011;4060;49.186;9.226;2023-04-25T13:36:38;6.25;;;4.18;;
7253;SDS011;4060;49.186;9.226;2023-04-25T13:39:08;4.13;;;3.58;;
7253;SDS011;4060;49.186;9.226;2023-04-25T13:41:39;4.32;;;3.92;;
7253;SDS011;4060;49.186;9.226;2023-04-25T13:44:09;5.38;;;4.03;;
7253;SDS011;4060;49.186;9.226;2023-04-25T13:46:40;4.20;;;3.15;;
7253;SDS011;4060;49.186;9.226;2023-04-25T13:49:12;4.90;;;3.50;;
7253;SDS011;4060;49.186;9.226;2023-04-25T13:51:42;3.90;;;3.00;;
7253;SDS011;4060;49.186;9.226;2023-04-25T13:54:12;3.80;;;3.17;;
7253;SDS011;4060;49.186;9.226;2023-04-25T13:56:42;3.28;;;2.97;;
7253;SDS011;4060;49.186;9.226;2023-04-25T13:59:12;2.90;;;2.65;;
7253;SDS011;4060;49.186;9.226;2023-04-25T14:01:41;3.92;;;3.20;;
7253;SDS011;4060;49.186;9.226;2023-04-25T14:04:13;3.17;;;2.60;;
7253;SDS011;4060;49.186;9.226;2023-04-25T14:06:43;3.25;;;2.95;;
7253;SDS011;4060;49.186;9.226;2023-04-25T14:09:13;3.47;;;2.65;;
7253;SDS011;4060;49.186;9.226;2023-04-25T14:11:43;3.35;;;2.88;;
7253;SDS011;4060;49.186;9.226;2023-04-25T14:14:13;2.83;;;2.60;;
7253;SDS011;4060;49.186;9.226;2023-04-25T14:16:42;2.80;;;2.60;;
7253;SDS011;4060;49.186;9.226;2023-04-25T14:19:16;4.35;;;2.80;;
7253;SDS011;4060;49.186;9.226;2023-04-25T14:21:46;3.60;;;2.85;;
7253;SDS011;4060;49.186;9.226;2023-04-25T14:24:16;2.83;;;2.63;;
7253;SDS011;4060;49.186;9.226;2023-04-25T14:26:46;3.40;;;2.90;;
7253;SDS011;4060;49.186;9.226;2023-04-25T14:29:16;3.33;;;2.42;;
7253;SDS011;4060;49.186;9.226;2023-04-25T14:31:45;3.20;;;2.70;;
7253;SDS011;4060;49.186;9.226;2023-04-25T14:34:17;3.05;;;2.40;;
7253;SDS011;4060;49.186;9.226;2023-04-25T14:36:46;3.10;;;2.80;;
7253;SDS011;4060;49.186;9.226;2023-04-25T14:39:16;3.05;;;2.70;;
7253;SDS011;4060;49.186;9.226;2023-04-25T14:41:46;2.70;;;2.50;;
7253;SDS011;4060;49.186;9.226;2023-04-25T14:44:16;3.47;;;2.90;;
7253;SDS011;4060;49.186;9.226;2023-04-25T14:46:45;3.17;;;2.75;;
7253;SDS011;4060;49.186;9.226;2023-04-25T14:49:19;2.72;;;2.40;;
7253;SDS011;4060;49.186;9.226;2023-04-25T14:51:49;2.83;;;2.53;;
7253;SDS011;4060;49.186;9.226;2023-04-25T14:54:18;3.20;;;2.50;;
7253;SDS011;4060;49.186;9.226;2023-04-25T14:56:48;3.03;;;2.83;;
7253;SDS011;4060;49.186;9.226;2023-04-25T14:59:17;3.50;;;2.58;;
7253;SDS011;4060;49.186;9.226;2023-04-25T15:01:47;2.47;;;2.10;;
7253;SDS011;4060;49.186;9.226;2023-04-25T15:04:19;2.38;;;2.08;;
7253;SDS011;4060;49.186;9.226;2023-04-25T15:06:49;2.88;;;2.67;;
7253;SDS011;4060;49.186;9.226;2023-04-25T15:09:25;2.83;;;2.13;;
7253;SDS011;4060;49.186;9.226;2023-04-25T15:11:55;2.53;;;2.30;;
7253;SDS011;4060;49.186;9.226;2023-04-25T15:14:25;2.10;;;1.90;;
7253;SDS011;4060;49.186;9.226;2023-04-25T15:16:55;2.65;;;2.45;;
7253;SDS011;4060;49.186;9.226;2023-04-25T15:19:27;3.08;;;2.50;;
7253;SDS011;4060;49.186;9.226;2023-04-25T15:21:57;2.45;;;2.25;;
7253;SDS011;4060;49.186;9.226;2023-04-25T15:24:29;2.58;;;2.38;;
7253;SDS011;4060;49.186;9.226;2023-04-25T15:26:58;2.38;;;2.17;;
7253;SDS011;4060;49.186;9.226;2023-04-25T15:29:29;3.08;;;2.40;;
7253;SDS011;4060;49.186;9.226;2023-04-25T15:31:59;3.10;;;2.42;;
7253;SDS011;4060;49.186;9.226;2023-04-25T15:34:30;3.35;;;2.65;;
7253;SDS011;4060;49.186;9.226;2023-04-25T15:36:59;2.50;;;2.30;;
7253;SDS011;4060;49.186;9.226;2023-04-25T15:39:29;3.05;;;2.75;;
7253;SDS011;4060;49.186;9.226;2023-04-25T15:41:59;2.50;;;2.30;;